PWSweather.com
Personal Weather Stations
Station Observations
KNHRINDG3
Converse Meadow Pond, Rindge, NH 03461

Converse Meadow PondRindge, NH 03461

Lat: 42.74, Lon: -71.98

Elevation: 1060

Station Type: Davis Vantage Pro 2

http://nhwoodworker.com/weather/index.php

High Low Average
Temperature 62.1°F16.7°F 45.4°F7.4°F 52.7°F11.5°F
Dew Point 50.7°F10.4°F 44.4°F6.9°F 47.7°F8.7°F
Winds 3.5 mph WSW5.6 mph WSW Calm Calm 0.6 mph 1.0 mph
Wind Gusts 10.4 mph16.7 mph -- 2.0 mph3.2 mph
Humidity 96% 63% 84%
Pressure 30.50 in1032.80 in 30.34 in1027.40 in -
Precipitation 0.00 in0.00 in - -
Hour Temp Dew Point Humidity Winds Wind Gusts Pressure Precip Precip Rate Daily Precip Total
12:00 AM 51.8°F11.0°C 50.4°F10.2°C 95% 1.2 mph N1.9 kmh N 1.2 mph1.9 kmh 30.34 in1027.4 mb - 0.00 in0.0 mm 0.00 in0.0 mm
12:10 AM 51.8°F11.0°C 50.4°F10.2°C 95% Calm Calm 3.5 mph5.6 kmh 30.34 in1027.4 mb - 0.00 in0.0 mm 0.00 in0.0 mm
12:30 AM 51.9°F11.1°C 50.5°F10.3°C 95% Calm Calm 3.5 mph5.6 kmh 30.36 in1028.1 mb - 0.00 in0.0 mm 0.00 in0.0 mm
12:40 AM 51.9°F11.1°C 50.5°F10.3°C 95% Calm Calm 2.3 mph3.7 kmh 30.36 in1028.1 mb - 0.00 in0.0 mm 0.00 in0.0 mm
12:50 AM 51.9°F11.1°C 50.2°F10.1°C 94% 1.2 mph E1.9 kmh E 3.5 mph5.6 kmh 30.36 in1028.1 mb - 0.00 in0.0 mm 0.00 in0.0 mm
01:00 AM 51.9°F11.1°C 50.3°F10.2°C 94% Calm Calm 8.1 mph13.0 kmh 30.36 in1028.1 mb - 0.00 in0.0 mm 0.00 in0.0 mm
01:10 AM 51.9°F11.1°C 50.2°F10.1°C 94% 2.3 mph ESE3.7 kmh ESE 3.5 mph5.6 kmh 30.36 in1028.1 mb - 0.00 in0.0 mm 0.00 in0.0 mm
01:20 AM 51.9°F11.1°C 50.2°F10.1°C 94% Calm Calm 1.2 mph1.9 kmh 30.36 in1028.1 mb - 0.00 in0.0 mm 0.00 in0.0 mm
01:30 AM 51.9°F11.1°C 50.2°F10.1°C 94% Calm Calm 2.3 mph3.7 kmh 30.36 in1028.1 mb - 0.00 in0.0 mm 0.00 in0.0 mm
01:40 AM 51.7°F10.9°C 50.0°F10.0°C 94% Calm Calm 4.6 mph7.4 kmh 30.36 in1028.1 mb - 0.00 in0.0 mm 0.00 in0.0 mm
01:50 AM 51.6°F10.9°C 50.0°F10.0°C 94% Calm Calm 3.5 mph5.6 kmh 30.36 in1028.1 mb - 0.00 in0.0 mm 0.00 in0.0 mm
02:00 AM 51.5°F10.8°C 49.8°F9.9°C 94% Calm Calm 3.5 mph5.6 kmh 30.36 in1028.1 mb - 0.00 in0.0 mm 0.00 in0.0 mm
02:10 AM 51.4°F10.8°C 49.4°F9.7°C 93% 1.2 mph ENE1.9 kmh ENE 5.8 mph9.3 kmh 30.35 in1027.8 mb - 0.00 in0.0 mm 0.00 in0.0 mm
02:40 AM 51.2°F10.7°C 49.5°F9.7°C 94% Calm Calm 1.2 mph1.9 kmh 30.35 in1027.8 mb - 0.00 in0.0 mm 0.00 in0.0 mm
02:50 AM 51.2°F10.7°C 49.8°F9.9°C 95% Calm Calm 1.2 mph1.9 kmh 30.35 in1027.8 mb - 0.00 in0.0 mm 0.00 in0.0 mm
03:00 AM 51.2°F10.7°C 49.8°F9.9°C 95% 1.2 mph SW1.9 kmh SW 2.3 mph3.7 kmh 30.35 in1027.8 mb - 0.00 in0.0 mm 0.00 in0.0 mm
03:10 AM 51.2°F10.7°C 49.8°F9.9°C 95% 1.2 mph SW1.9 kmh SW 2.3 mph3.7 kmh 30.35 in1027.8 mb - 0.00 in0.0 mm 0.00 in0.0 mm
03:20 AM 51.2°F10.7°C 49.8°F9.9°C 95% 1.2 mph WSW1.9 kmh WSW 2.3 mph3.7 kmh 30.35 in1027.8 mb - 0.00 in0.0 mm 0.00 in0.0 mm
03:30 AM 51.2°F10.7°C 49.8°F9.9°C 95% 1.2 mph WSW1.9 kmh WSW 3.5 mph5.6 kmh 30.35 in1027.8 mb - 0.00 in0.0 mm 0.00 in0.0 mm
03:40 AM 51.0°F10.6°C 49.3°F9.6°C 94% 1.2 mph NNW1.9 kmh NNW 2.3 mph3.7 kmh 30.36 in1028.1 mb - 0.00 in0.0 mm 0.00 in0.0 mm
03:50 AM 51.0°F10.6°C 49.3°F9.6°C 94% 1.2 mph NNW1.9 kmh NNW 2.3 mph3.7 kmh 30.36 in1028.1 mb - 0.00 in0.0 mm 0.00 in0.0 mm
04:00 AM 50.8°F10.4°C 49.1°F9.5°C 94% 1.2 mph SW1.9 kmh SW 2.3 mph3.7 kmh 30.36 in1028.1 mb - 0.00 in0.0 mm 0.00 in0.0 mm
04:10 AM 50.8°F10.4°C 49.1°F9.5°C 94% 1.2 mph SW1.9 kmh SW 2.3 mph3.7 kmh 30.36 in1028.1 mb - 0.00 in0.0 mm 0.00 in0.0 mm
04:20 AM 50.4°F10.2°C 48.7°F9.3°C 94% Calm Calm 1.2 mph1.9 kmh 30.38 in1028.8 mb - 0.00 in0.0 mm 0.00 in0.0 mm
04:30 AM 50.4°F10.2°C 48.7°F9.3°C 94% Calm Calm 1.2 mph1.9 kmh 30.38 in1028.8 mb - 0.00 in0.0 mm 0.00 in0.0 mm
04:40 AM 49.8°F9.9°C 48.2°F9.0°C 94% Calm Calm -- 30.38 in1028.8 mb - 0.00 in0.0 mm 0.00 in0.0 mm
04:50 AM 49.4°F9.7°C 47.7°F8.7°C 94% Calm Calm 2.3 mph3.7 kmh 30.39 in1029.1 mb - 0.00 in0.0 mm 0.00 in0.0 mm
05:00 AM 48.9°F9.4°C 47.2°F8.4°C 94% Calm Calm 1.2 mph1.9 kmh 30.39 in1029.1 mb - 0.00 in0.0 mm 0.00 in0.0 mm
05:10 AM 48.4°F9.1°C 46.8°F8.2°C 94% 1.2 mph NNE1.9 kmh NNE 2.3 mph3.7 kmh 30.39 in1029.1 mb - 0.00 in0.0 mm 0.00 in0.0 mm
05:20 AM 48.0°F8.9°C 46.6°F8.1°C 95% Calm Calm 1.2 mph1.9 kmh 30.39 in1029.1 mb - 0.00 in0.0 mm 0.00 in0.0 mm
05:30 AM 47.8°F8.8°C 46.4°F8.0°C 95% Calm Calm 1.2 mph1.9 kmh 30.39 in1029.1 mb - 0.00 in0.0 mm 0.00 in0.0 mm
05:40 AM 47.3°F8.5°C 46.0°F7.8°C 95% Calm Calm -- 30.39 in1029.1 mb - 0.00 in0.0 mm 0.00 in0.0 mm
05:50 AM 47.0°F8.3°C 45.7°F7.6°C 95% Calm Calm -- 30.40 in1029.5 mb - 0.00 in0.0 mm 0.00 in0.0 mm
06:00 AM 46.8°F8.2°C 45.4°F7.4°C 95% Calm Calm -- 30.40 in1029.5 mb - 0.00 in0.0 mm 0.00 in0.0 mm
06:10 AM 46.4°F8.0°C 45.4°F7.4°C 96% Calm Calm -- 30.41 in1029.8 mb - 0.00 in0.0 mm 0.00 in0.0 mm
06:20 AM 46.1°F7.8°C 45.1°F7.3°C 96% Calm Calm -- 30.41 in1029.8 mb - 0.00 in0.0 mm 0.00 in0.0 mm
06:30 AM 46.0°F7.8°C 44.9°F7.2°C 96% Calm Calm -- 30.41 in1029.8 mb - 0.00 in0.0 mm 0.00 in0.0 mm
06:40 AM 45.9°F7.7°C 44.8°F7.1°C 96% Calm Calm -- 30.41 in1029.8 mb - 0.00 in0.0 mm 0.00 in0.0 mm
06:50 AM 45.7°F7.6°C 44.7°F7.1°C 96% Calm Calm 2.3 mph3.7 kmh 30.41 in1029.8 mb - 0.00 in0.0 mm 0.00 in0.0 mm
07:00 AM 45.6°F7.6°C 44.5°F6.9°C 96% Calm Calm 1.2 mph1.9 kmh 30.41 in1029.8 mb - 0.00 in0.0 mm 0.00 in0.0 mm
07:10 AM 45.4°F7.4°C 44.4°F6.9°C 96% Calm Calm 3.5 mph5.6 kmh 30.41 in1029.8 mb - 0.00 in0.0 mm 0.00 in0.0 mm
07:20 AM 45.5°F7.5°C 44.4°F6.9°C 96% Calm Calm 2.3 mph3.7 kmh 30.42 in1030.1 mb - 0.00 in0.0 mm 0.00 in0.0 mm
07:30 AM 45.6°F7.6°C 44.5°F6.9°C 96% 1.2 mph NNE1.9 kmh NNE 3.5 mph5.6 kmh 30.43 in1030.5 mb - 0.00 in0.0 mm 0.00 in0.0 mm
07:40 AM 45.7°F7.6°C 44.6°F7.0°C 96% Calm Calm 3.5 mph5.6 kmh 30.43 in1030.5 mb - 0.00 in0.0 mm 0.00 in0.0 mm
07:50 AM 45.9°F7.7°C 44.5°F6.9°C 95% Calm Calm 1.2 mph1.9 kmh 30.44 in1030.8 mb - 0.00 in0.0 mm 0.00 in0.0 mm
08:00 AM 46.0°F7.8°C 44.7°F7.1°C 95% Calm Calm -- 30.44 in1030.8 mb - 0.00 in0.0 mm 0.00 in0.0 mm
08:10 AM 46.5°F8.1°C 44.6°F7.0°C 93% Calm Calm 1.2 mph1.9 kmh 30.44 in1030.8 mb - 0.00 in0.0 mm 0.00 in0.0 mm
08:20 AM 46.8°F8.2°C 44.6°F7.0°C 92% 1.2 mph WSW1.9 kmh WSW 2.3 mph3.7 kmh 30.44 in1030.8 mb - 0.00 in0.0 mm 0.00 in0.0 mm
08:30 AM 46.9°F8.3°C 44.4°F6.9°C 91% Calm Calm 1.2 mph1.9 kmh 30.44 in1030.8 mb - 0.00 in0.0 mm 0.00 in0.0 mm
08:40 AM 47.4°F8.6°C 44.9°F7.2°C 91% Calm Calm 3.5 mph5.6 kmh 30.45 in1031.2 mb - 0.00 in0.0 mm 0.00 in0.0 mm
08:50 AM 47.9°F8.8°C 44.9°F7.2°C 89% 1.2 mph W1.9 kmh W 3.5 mph5.6 kmh 30.46 in1031.5 mb - 0.00 in0.0 mm 0.00 in0.0 mm
09:00 AM 48.3°F9.1°C 44.9°F7.2°C 88% 1.2 mph NW1.9 kmh NW 3.5 mph5.6 kmh 30.45 in1031.2 mb - 0.00 in0.0 mm 0.00 in0.0 mm
09:10 AM 48.8°F9.3°C 44.8°F7.1°C 86% 2.3 mph NNW3.7 kmh NNW 10.4 mph16.7 kmh 30.45 in1031.2 mb - 0.00 in0.0 mm 0.00 in0.0 mm
09:20 AM 49.1°F9.5°C 44.8°F7.1°C 85% 3.5 mph WSW5.6 kmh WSW 3.5 mph5.6 kmh 30.46 in1031.5 mb - 0.00 in0.0 mm 0.00 in0.0 mm
09:30 AM 49.4°F9.7°C 45.4°F7.4°C 86% 1.2 mph E1.9 kmh E 2.3 mph3.7 kmh 30.46 in1031.5 mb - 0.00 in0.0 mm 0.00 in0.0 mm
09:40 AM 49.8°F9.9°C 45.7°F7.6°C 86% 1.2 mph NNW1.9 kmh NNW 2.3 mph3.7 kmh 30.46 in1031.5 mb - 0.00 in0.0 mm 0.00 in0.0 mm
09:50 AM 50.0°F10.0°C 46.0°F7.8°C 86% Calm Calm 1.2 mph1.9 kmh 30.46 in1031.5 mb - 0.00 in0.0 mm 0.00 in0.0 mm
10:00 AM 50.6°F10.3°C 46.3°F7.9°C 85% 1.2 mph E1.9 kmh E 3.5 mph5.6 kmh 30.46 in1031.5 mb - 0.00 in0.0 mm 0.00 in0.0 mm
10:10 AM 51.1°F10.6°C 46.7°F8.2°C 85% 1.2 mph E1.9 kmh E 1.2 mph1.9 kmh 30.46 in1031.5 mb - 0.00 in0.0 mm 0.00 in0.0 mm
10:20 AM 51.4°F10.8°C 46.8°F8.2°C 84% Calm Calm -- 30.46 in1031.5 mb - 0.00 in0.0 mm 0.00 in0.0 mm
10:30 AM 52.2°F11.2°C 47.5°F8.6°C 84% Calm Calm 3.5 mph5.6 kmh 30.46 in1031.5 mb - 0.00 in0.0 mm 0.00 in0.0 mm
10:40 AM 52.8°F11.6°C 46.8°F8.2°C 80% 2.3 mph S3.7 kmh S 4.6 mph7.4 kmh 30.46 in1031.5 mb - 0.00 in0.0 mm 0.00 in0.0 mm
10:50 AM 53.4°F11.9°C 47.7°F8.7°C 81% 1.2 mph N1.9 kmh N 4.6 mph7.4 kmh 30.46 in1031.5 mb - 0.00 in0.0 mm 0.00 in0.0 mm
11:00 AM 53.8°F12.1°C 47.7°F8.7°C 80% 1.2 mph NE1.9 kmh NE 3.5 mph5.6 kmh 30.46 in1031.5 mb - 0.00 in0.0 mm 0.00 in0.0 mm
11:10 AM 54.2°F12.3°C 47.9°F8.8°C 79% 1.2 mph WSW1.9 kmh WSW 5.8 mph9.3 kmh 30.46 in1031.5 mb - 0.00 in0.0 mm 0.00 in0.0 mm
11:20 AM 54.7°F12.6°C 47.6°F8.7°C 77% 1.2 mph E1.9 kmh E 2.3 mph3.7 kmh 30.46 in1031.5 mb - 0.00 in0.0 mm 0.00 in0.0 mm
11:30 AM 55.2°F12.9°C 47.7°F8.7°C 76% 1.2 mph S1.9 kmh S 3.5 mph5.6 kmh 30.46 in1031.5 mb - 0.00 in0.0 mm 0.00 in0.0 mm
11:40 AM 55.9°F13.3°C 48.4°F9.1°C 76% Calm Calm 5.8 mph9.3 kmh 30.47 in1031.8 mb - 0.00 in0.0 mm 0.00 in0.0 mm
11:50 AM 56.2°F13.4°C 48.4°F9.1°C 75% 1.2 mph WNW1.9 kmh WNW 2.3 mph3.7 kmh 30.47 in1031.8 mb - 0.00 in0.0 mm 0.00 in0.0 mm
12:00 PM 56.6°F13.7°C 48.4°F9.1°C 74% 1.2 mph NNE1.9 kmh NNE 2.3 mph3.7 kmh 30.47 in1031.8 mb - 0.00 in0.0 mm 0.00 in0.0 mm
12:10 PM 57.3°F14.1°C 48.7°F9.3°C 73% 1.2 mph E1.9 kmh E 3.5 mph5.6 kmh 30.47 in1031.8 mb - 0.00 in0.0 mm 0.00 in0.0 mm
12:20 PM 58.0°F14.4°C 49.0°F9.4°C 72% 1.2 mph E1.9 kmh E 2.3 mph3.7 kmh 30.47 in1031.8 mb - 0.00 in0.0 mm 0.00 in0.0 mm
12:30 PM 58.1°F14.5°C 48.7°F9.3°C 71% 1.2 mph N1.9 kmh N 3.5 mph5.6 kmh 30.46 in1031.5 mb - 0.00 in0.0 mm 0.00 in0.0 mm
12:40 PM 57.7°F14.3°C 48.7°F9.3°C 72% 1.2 mph SE1.9 kmh SE 3.5 mph5.6 kmh 30.46 in1031.5 mb - 0.00 in0.0 mm 0.00 in0.0 mm
12:50 PM 57.9°F14.4°C 49.6°F9.8°C 74% Calm Calm 1.2 mph1.9 kmh 30.46 in1031.5 mb - 0.00 in0.0 mm 0.00 in0.0 mm
01:00 PM 58.8°F14.9°C 49.4°F9.7°C 71% 1.2 mph SSE1.9 kmh SSE 3.5 mph5.6 kmh 30.46 in1031.5 mb - 0.00 in0.0 mm 0.00 in0.0 mm
01:10 PM 59.6°F15.3°C 49.0°F9.4°C 68% 2.3 mph WSW3.7 kmh WSW 3.5 mph5.6 kmh 30.46 in1031.5 mb - 0.00 in0.0 mm 0.00 in0.0 mm
01:20 PM 59.5°F15.3°C 48.6°F9.2°C 67% 2.3 mph SE3.7 kmh SE 3.5 mph5.6 kmh 30.46 in1031.5 mb - 0.00 in0.0 mm 0.00 in0.0 mm
01:30 PM 59.5°F15.3°C 48.5°F9.2°C 67% 2.3 mph NW3.7 kmh NW 3.5 mph5.6 kmh 30.46 in1031.5 mb - 0.00 in0.0 mm 0.00 in0.0 mm
01:40 PM 59.5°F15.3°C 48.5°F9.2°C 67% 1.2 mph N1.9 kmh N -- 30.45 in1031.2 mb - 0.00 in0.0 mm 0.00 in0.0 mm
01:50 PM 59.5°F15.3°C 48.5°F9.2°C 67% Calm Calm -- 30.45 in1031.2 mb - 0.00 in0.0 mm 0.00 in0.0 mm
02:00 PM 59.5°F15.3°C 48.5°F9.2°C 67% Calm Calm -- 30.45 in1031.2 mb - 0.00 in0.0 mm 0.00 in0.0 mm
02:10 PM 60.2°F15.7°C 48.8°F9.3°C 66% Calm Calm 3.5 mph5.6 kmh 30.45 in1031.2 mb - 0.00 in0.0 mm 0.00 in0.0 mm
02:20 PM 61.1°F16.2°C 50.1°F10.1°C 67% 1.2 mph WSW1.9 kmh WSW 3.5 mph5.6 kmh 30.45 in1031.2 mb - 0.00 in0.0 mm 0.00 in0.0 mm
02:30 PM 61.3°F16.3°C 49.9°F9.9°C 66% 2.3 mph WSW3.7 kmh WSW 8.1 mph13.0 kmh 30.45 in1031.2 mb - 0.00 in0.0 mm 0.00 in0.0 mm
02:40 PM 61.3°F16.3°C 50.2°F10.1°C 67% 2.3 mph WSW3.7 kmh WSW 1.2 mph1.9 kmh 30.45 in1031.2 mb - 0.00 in0.0 mm 0.00 in0.0 mm
02:50 PM 61.3°F16.3°C 50.7°F10.4°C 68% 1.2 mph SSW1.9 kmh SSW 1.2 mph1.9 kmh 30.45 in1031.2 mb - 0.00 in0.0 mm 0.00 in0.0 mm
03:00 PM 61.6°F16.4°C 50.1°F10.1°C 66% 1.2 mph N1.9 kmh N 2.3 mph3.7 kmh 30.45 in1031.2 mb - 0.00 in0.0 mm 0.00 in0.0 mm
03:10 PM 61.8°F16.6°C 50.7°F10.4°C 67% 1.2 mph NE1.9 kmh NE 2.3 mph3.7 kmh 30.45 in1031.2 mb - 0.00 in0.0 mm 0.00 in0.0 mm
03:20 PM 62.1°F16.7°C 50.2°F10.1°C 65% 1.2 mph WSW1.9 kmh WSW 3.5 mph5.6 kmh 30.45 in1031.2 mb - 0.00 in0.0 mm 0.00 in0.0 mm
03:30 PM 61.8°F16.6°C 49.9°F9.9°C 65% 2.3 mph WNW3.7 kmh WNW 3.5 mph5.6 kmh 30.44 in1030.8 mb - 0.00 in0.0 mm 0.00 in0.0 mm
03:40 PM 61.8°F16.6°C 50.3°F10.2°C 66% 3.5 mph NNW5.6 kmh NNW 3.5 mph5.6 kmh 30.44 in1030.8 mb - 0.00 in0.0 mm 0.00 in0.0 mm
03:50 PM 61.8°F16.6°C 50.3°F10.2°C 66% Calm Calm -- 30.44 in1030.8 mb - 0.00 in0.0 mm 0.00 in0.0 mm
04:00 PM 61.6°F16.4°C 48.9°F9.4°C 63% 2.3 mph W3.7 kmh W 3.5 mph5.6 kmh 30.44 in1030.8 mb - 0.00 in0.0 mm 0.00 in0.0 mm
04:10 PM 61.6°F16.4°C 48.9°F9.4°C 63% 3.5 mph N5.6 kmh N 3.5 mph5.6 kmh 30.44 in1030.8 mb - 0.00 in0.0 mm 0.00 in0.0 mm
04:20 PM 61.6°F16.4°C 48.9°F9.4°C 63% Calm Calm -- 30.44 in1030.8 mb - 0.00 in0.0 mm 0.00 in0.0 mm
04:30 PM 61.6°F16.4°C 48.9°F9.4°C 63% Calm Calm -- 30.44 in1030.8 mb - 0.00 in0.0 mm 0.00 in0.0 mm
04:40 PM 61.6°F16.4°C 48.9°F9.4°C 63% Calm Calm -- 30.44 in1030.8 mb - 0.00 in0.0 mm 0.00 in0.0 mm
04:50 PM 61.6°F16.4°C 48.9°F9.4°C 63% Calm Calm -- 30.44 in1030.8 mb - 0.00 in0.0 mm 0.00 in0.0 mm
05:00 PM 61.6°F16.4°C 48.9°F9.4°C 63% Calm Calm -- 30.44 in1030.8 mb - 0.00 in0.0 mm 0.00 in0.0 mm
05:10 PM 61.6°F16.4°C 48.9°F9.4°C 63% Calm Calm -- 30.45 in1031.2 mb - 0.00 in0.0 mm 0.00 in0.0 mm
05:20 PM 61.6°F16.4°C 48.9°F9.4°C 63% Calm Calm -- 30.45 in1031.2 mb - 0.00 in0.0 mm 0.00 in0.0 mm
05:30 PM 61.6°F16.4°C 48.9°F9.4°C 63% Calm Calm -- 30.45 in1031.2 mb - 0.00 in0.0 mm 0.00 in0.0 mm
05:40 PM 61.6°F16.4°C 48.9°F9.4°C 63% Calm Calm -- 30.45 in1031.2 mb - 0.00 in0.0 mm 0.00 in0.0 mm
05:50 PM 58.6°F14.8°C 46.0°F7.8°C 63% Calm Calm -- 30.45 in1031.2 mb - 0.00 in0.0 mm 0.00 in0.0 mm
06:00 PM 55.3°F12.9°C 45.3°F7.4°C 69% Calm Calm 3.5 mph5.6 kmh 30.45 in1031.2 mb - 0.00 in0.0 mm 0.00 in0.0 mm
06:10 PM 54.7°F12.6°C 48.0°F8.9°C 78% Calm Calm -- 30.45 in1031.2 mb - 0.00 in0.0 mm 0.00 in0.0 mm
06:20 PM 54.1°F12.3°C 47.4°F8.6°C 78% Calm Calm 2.3 mph3.7 kmh 30.45 in1031.2 mb - 0.00 in0.0 mm 0.00 in0.0 mm
06:30 PM 53.5°F11.9°C 47.5°F8.6°C 80% Calm Calm -- 30.45 in1031.2 mb - 0.00 in0.0 mm 0.00 in0.0 mm
06:40 PM 53.0°F11.7°C 46.3°F7.9°C 78% Calm Calm 1.2 mph1.9 kmh 30.46 in1031.5 mb - 0.00 in0.0 mm 0.00 in0.0 mm
06:50 PM 52.5°F11.4°C 46.6°F8.1°C 80% Calm Calm -- 30.46 in1031.5 mb - 0.00 in0.0 mm 0.00 in0.0 mm
07:00 PM 52.1°F11.2°C 46.4°F8.0°C 81% Calm Calm -- 30.45 in1031.2 mb - 0.00 in0.0 mm 0.00 in0.0 mm
07:10 PM 51.6°F10.9°C 46.6°F8.1°C 83% Calm Calm 1.2 mph1.9 kmh 30.45 in1031.2 mb - 0.00 in0.0 mm 0.00 in0.0 mm
07:20 PM 51.1°F10.6°C 46.2°F7.9°C 83% 1.2 mph NW1.9 kmh NW 3.5 mph5.6 kmh 30.45 in1031.2 mb - 0.00 in0.0 mm 0.00 in0.0 mm
07:30 PM 50.9°F10.5°C 46.3°F7.9°C 84% Calm Calm 1.2 mph1.9 kmh 30.46 in1031.5 mb - 0.00 in0.0 mm 0.00 in0.0 mm
07:40 PM 50.8°F10.4°C 46.2°F7.9°C 84% Calm Calm -- 30.46 in1031.5 mb - 0.00 in0.0 mm 0.00 in0.0 mm
07:50 PM 50.8°F10.4°C 46.5°F8.1°C 85% Calm Calm 1.2 mph1.9 kmh 30.46 in1031.5 mb - 0.00 in0.0 mm 0.00 in0.0 mm
08:00 PM 50.6°F10.3°C 46.6°F8.1°C 86% Calm Calm 1.2 mph1.9 kmh 30.46 in1031.5 mb - 0.00 in0.0 mm 0.00 in0.0 mm
08:10 PM 50.4°F10.2°C 46.4°F8.0°C 86% Calm Calm -- 30.46 in1031.5 mb - 0.00 in0.0 mm 0.00 in0.0 mm
08:20 PM 50.3°F10.2°C 46.5°F8.1°C 87% Calm Calm 2.3 mph3.7 kmh 30.47 in1031.8 mb - 0.00 in0.0 mm 0.00 in0.0 mm
08:30 PM 50.2°F10.1°C 46.8°F8.2°C 88% Calm Calm -- 30.47 in1031.8 mb - 0.00 in0.0 mm 0.00 in0.0 mm
08:40 PM 50.0°F10.0°C 46.6°F8.1°C 88% 1.2 mph WNW1.9 kmh WNW 2.3 mph3.7 kmh 30.47 in1031.8 mb - 0.00 in0.0 mm 0.00 in0.0 mm
08:50 PM 50.0°F10.0°C 46.9°F8.3°C 89% Calm Calm -- 30.47 in1031.8 mb - 0.00 in0.0 mm 0.00 in0.0 mm
09:00 PM 50.0°F10.0°C 46.9°F8.3°C 89% Calm Calm -- 30.47 in1031.8 mb - 0.00 in0.0 mm 0.00 in0.0 mm
09:10 PM 50.0°F10.0°C 46.9°F8.3°C 89% Calm Calm -- 30.48 in1032.2 mb - 0.00 in0.0 mm 0.00 in0.0 mm
09:20 PM 50.0°F10.0°C 46.9°F8.3°C 89% Calm Calm -- 30.48 in1032.2 mb - 0.00 in0.0 mm 0.00 in0.0 mm
09:30 PM 49.9°F9.9°C 47.1°F8.4°C 90% Calm Calm -- 30.48 in1032.2 mb - 0.00 in0.0 mm 0.00 in0.0 mm
09:40 PM 49.4°F9.7°C 47.2°F8.4°C 92% Calm Calm 2.3 mph3.7 kmh 30.48 in1032.2 mb - 0.00 in0.0 mm 0.00 in0.0 mm
09:50 PM 49.3°F9.6°C 47.1°F8.4°C 92% Calm Calm -- 30.48 in1032.2 mb - 0.00 in0.0 mm 0.00 in0.0 mm
10:00 PM 49.3°F9.6°C 47.1°F8.4°C 92% Calm Calm 1.2 mph1.9 kmh 30.49 in1032.5 mb - 0.00 in0.0 mm 0.00 in0.0 mm
10:10 PM 49.2°F9.6°C 47.3°F8.5°C 93% Calm Calm 1.2 mph1.9 kmh 30.49 in1032.5 mb - 0.00 in0.0 mm 0.00 in0.0 mm
10:20 PM 49.0°F9.4°C 47.1°F8.4°C 93% Calm Calm 1.2 mph1.9 kmh 30.49 in1032.5 mb - 0.00 in0.0 mm 0.00 in0.0 mm
10:30 PM 49.0°F9.4°C 47.1°F8.4°C 93% Calm Calm -- 30.48 in1032.2 mb - 0.00 in0.0 mm 0.00 in0.0 mm
10:40 PM 48.9°F9.4°C 47.2°F8.4°C 94% Calm Calm 2.3 mph3.7 kmh 30.48 in1032.2 mb - 0.00 in0.0 mm 0.00 in0.0 mm
10:50 PM 48.9°F9.4°C 47.2°F8.4°C 94% Calm Calm -- 30.49 in1032.5 mb - 0.00 in0.0 mm 0.00 in0.0 mm
11:00 PM 48.8°F9.3°C 47.2°F8.4°C 94% 1.2 mph N1.9 kmh N 3.5 mph5.6 kmh 30.49 in1032.5 mb - 0.00 in0.0 mm 0.00 in0.0 mm
11:10 PM 48.7°F9.3°C 47.1°F8.4°C 94% Calm Calm 1.2 mph1.9 kmh 30.49 in1032.5 mb - 0.00 in0.0 mm 0.00 in0.0 mm
11:20 PM 48.5°F9.2°C 46.9°F8.3°C 94% Calm Calm -- 30.50 in1032.8 mb - 0.00 in0.0 mm 0.00 in0.0 mm
11:30 PM 48.4°F9.1°C 46.8°F8.2°C 94% Calm Calm -- 30.49 in1032.5 mb - 0.00 in0.0 mm 0.00 in0.0 mm
11:40 PM 48.4°F9.1°C 47.0°F8.3°C 95% Calm Calm 1.2 mph1.9 kmh 30.49 in1032.5 mb - 0.00 in0.0 mm 0.00 in0.0 mm
11:50 PM 48.2°F9.0°C 46.8°F8.2°C 95% Calm Calm -- 30.48 in1032.2 mb - 0.00 in0.0 mm 0.00 in0.0 mm